createdAt,value
2019-04-28T14:10:18.248Z,56.62
2019-04-28T14:12:52.727Z,56.02
2019-04-28T14:15:27.481Z,56.66
2019-04-28T14:18:08.821Z,56.26
2019-04-28T14:20:45.157Z,56.07
2019-04-28T14:23:17.586Z,56.01
2019-04-28T14:25:57.645Z,55.83
2019-04-28T14:28:29.533Z,56.55
2019-04-28T14:31:05.147Z,56.28
2019-04-28T14:33:46.732Z,55.40
2019-04-28T14:36:19.199Z,54.67
2019-04-28T14:38:54.531Z,50.31
2019-04-28T14:41:45.138Z,50.30
2019-04-28T14:44:22.947Z,49.12
2019-04-28T14:47:04.451Z,47.79
2019-04-28T14:49:42.176Z,45.17
2019-04-28T14:55:12.198Z,45.64
2019-04-28T14:57:43.369Z,46.40
2019-04-28T15:00:17.112Z,45.67
2019-04-28T15:02:52.119Z,46.02
2019-04-28T15:05:46.375Z,44.72
2019-04-28T15:08:23.174Z,43.91
2019-04-28T15:11:02.301Z,42.42
2019-04-28T15:13:35.058Z,42.55
2019-04-28T15:16:09.330Z,40.95
2019-04-28T15:18:47.562Z,40.49
2019-04-28T15:21:23.391Z,41.30
2019-04-28T15:24:00.014Z,41.05
2019-04-28T15:26:47.793Z,40.06
2019-04-28T15:29:24.635Z,39.06
2019-04-28T15:31:58.875Z,39.39
2019-04-28T15:34:32.542Z,40.63
2019-04-28T15:37:10.056Z,40.83
2019-04-28T15:42:38.991Z,42.29
2019-04-28T15:45:13.854Z,42.65
2019-04-28T15:47:49.246Z,42.95
2019-04-28T15:50:25.624Z,43.47
2019-04-28T15:53:03.178Z,45.03
2019-04-28T15:55:40.694Z,46.34
2019-04-28T15:58:28.622Z,46.48
2019-04-28T16:01:01.050Z,46.75
2019-04-28T16:03:32.410Z,47.42
2019-04-28T16:06:06.834Z,46.91
2019-04-28T16:08:36.244Z,46.56
2019-04-28T16:11:07.447Z,46.34
2019-04-28T16:13:37.661Z,45.45
2019-04-28T16:16:07.300Z,45.81
2019-04-28T16:18:42.023Z,45.73
2019-04-28T16:21:11.543Z,46.40
2019-04-28T16:23:42.660Z,47.06
2019-04-28T16:26:16.626Z,47.04
2019-04-28T16:28:48.600Z,47.34
2019-04-28T16:31:20.108Z,47.16
2019-04-28T16:33:51.399Z,46.61
2019-04-28T16:36:24.707Z,46.28
2019-04-28T16:38:56.750Z,45.91
2019-04-28T16:41:28.444Z,46.29
2019-04-28T16:44:01.666Z,46.92
2019-04-28T16:46:34.651Z,47.54
2019-04-28T16:49:04.500Z,47.98
2019-04-28T16:51:38.359Z,48.36
2019-04-28T16:54:09.607Z,48.92
2019-04-28T16:56:47.212Z,49.45
2019-04-28T16:59:24.165Z,50.01
2019-04-28T17:01:57.923Z,50.39
2019-04-28T17:04:29.335Z,50.59
2019-04-28T17:06:58.767Z,50.65
2019-04-28T17:09:28.259Z,51.10
2019-04-28T17:11:58.950Z,51.98
2019-04-28T17:14:28.293Z,51.87
2019-04-28T17:17:00.771Z,52.14
2019-04-28T17:19:31.806Z,51.92
2019-04-28T17:22:01.356Z,51.44
2019-04-28T17:24:32.755Z,50.87
2019-04-28T17:27:02.094Z,50.71
2019-04-28T17:29:31.477Z,50.96
2019-04-28T17:32:00.874Z,51.30
2019-04-28T17:34:29.850Z,51.63
2019-04-28T17:36:58.873Z,52.03
2019-04-28T17:39:29.544Z,52.77
2019-04-28T17:42:00.227Z,53.32
2019-04-28T17:44:39.460Z,53.64
2019-04-28T17:47:09.496Z,53.55
2019-04-28T17:49:38.804Z,53.99
2019-04-28T17:52:09.424Z,54.20
2019-04-28T17:54:38.630Z,54.20
2019-04-28T17:57:07.795Z,54.37
2019-04-28T17:59:37.099Z,54.94
2019-04-28T18:02:11.234Z,55.22
2019-04-28T18:04:57.555Z,55.67
2019-04-28T18:07:27.987Z,55.44
2019-04-28T18:09:56.887Z,55.14
2019-04-28T18:12:25.697Z,54.85
2019-04-28T18:14:57.833Z,54.92
2019-04-28T18:17:32.297Z,55.06
2019-04-28T18:20:01.229Z,55.16
2019-04-28T18:22:29.749Z,55.14
2019-04-28T18:24:58.370Z,55.68
2019-04-28T18:27:27.646Z,56.43
2019-04-28T18:29:56.204Z,57.10
2019-04-28T18:32:28.708Z,57.78
2019-04-28T18:35:14.063Z,58.55
2019-04-28T18:38:01.309Z,59.47
2019-04-28T18:40:47.216Z,60.39
2019-04-28T18:43:20.346Z,60.95
2019-04-28T18:45:48.798Z,61.73
2019-04-28T18:48:17.210Z,62.77
2019-04-28T18:50:46.051Z,63.08
2019-04-28T18:53:14.471Z,63.60
2019-04-28T18:55:43.236Z,64.10
2019-04-28T18:58:11.746Z,64.61
2019-04-28T19:00:41.838Z,65.06
2019-04-28T19:03:10.269Z,65.69
2019-04-28T19:05:40.379Z,66.21
2019-04-28T19:08:13.564Z,66.80
2019-04-28T19:10:59.353Z,67.21
2019-04-28T19:13:29.455Z,67.38
2019-04-28T19:16:17.901Z,67.73
2019-04-28T19:18:51.118Z,67.98
2019-04-28T19:21:19.579Z,68.27
2019-04-28T19:23:49.466Z,68.57
2019-04-28T19:26:18.796Z,68.88
2019-04-28T19:28:47.825Z,69.17
2019-04-28T19:31:16.277Z,69.56
2019-04-28T19:33:44.798Z,69.82
2019-04-28T19:36:13.368Z,70.11
2019-04-28T19:38:41.857Z,70.43
2019-04-28T19:41:10.275Z,70.65
2019-04-28T19:43:38.784Z,70.85
2019-04-28T19:46:09.133Z,70.90
2019-04-28T19:48:37.569Z,71.17
2019-04-28T19:51:05.997Z,71.30
2019-04-28T19:53:34.536Z,71.70
2019-04-28T19:56:04.613Z,72.15
2019-04-28T19:58:43.377Z,73.00
2019-04-28T20:01:15.834Z,72.90
2019-04-28T20:03:44.672Z,73.11
2019-04-28T20:06:13.403Z,73.43
2019-04-28T20:08:41.828Z,73.94
2019-04-28T20:11:10.519Z,74.38
2019-04-28T20:13:39.092Z,74.37
2019-04-28T20:16:07.706Z,74.59
2019-04-28T20:18:36.139Z,74.88
2019-04-28T20:21:04.614Z,75.01
2019-04-28T20:23:33.058Z,75.13
2019-04-28T20:26:01.565Z,75.15
2019-04-28T20:28:30.053Z,75.25
2019-04-28T20:30:58.539Z,75.43
2019-04-28T20:33:27.247Z,75.58
2019-04-28T20:35:57.336Z,75.74
2019-04-28T20:38:30.106Z,75.93
2019-04-28T20:41:08.916Z,76.03
2019-04-28T20:43:37.391Z,76.28
2019-04-28T20:46:05.869Z,76.46
2019-04-28T20:48:34.444Z,76.46
2019-04-28T20:51:02.876Z,76.62
2019-04-28T20:53:31.431Z,76.72
2019-04-28T20:56:00.099Z,76.96
2019-04-28T20:58:28.552Z,77.04
2019-04-28T21:00:57.055Z,77.10
2019-04-28T21:03:25.707Z,77.09
2019-04-28T21:05:54.128Z,77.13
2019-04-28T21:08:22.590Z,77.18
2019-04-28T21:10:51.014Z,77.31
2019-04-28T21:13:19.591Z,77.66
2019-04-28T21:15:48.046Z,77.49
2019-04-28T21:18:16.987Z,77.50
2019-04-28T21:20:45.642Z,77.57
2019-04-28T21:23:14.042Z,77.68
2019-04-28T21:25:42.502Z,77.80
2019-04-28T21:28:10.950Z,77.90
2019-04-28T21:30:39.433Z,78.04
2019-04-28T21:33:08.120Z,78.40
2019-04-28T21:35:36.546Z,78.43
2019-04-28T21:38:05.081Z,78.58
2019-04-28T21:40:33.929Z,78.69
2019-04-28T21:43:06.939Z,78.82
2019-04-28T21:45:53.171Z,78.85
2019-04-28T21:48:41.586Z,78.82
2019-04-28T21:51:12.002Z,78.85
2019-04-28T21:53:40.237Z,78.84
2019-04-28T21:56:08.825Z,78.91
2019-04-28T21:58:37.273Z,79.00
2019-04-28T22:01:07.199Z,79.08
2019-04-28T22:03:35.585Z,79.25
2019-04-28T22:06:04.779Z,79.43
2019-04-28T22:08:33.208Z,79.58
2019-04-28T22:11:01.675Z,79.72
2019-04-28T22:13:30.518Z,79.88
2019-04-28T22:15:58.946Z,79.95
2019-04-28T22:18:27.380Z,80.01
2019-04-28T22:20:55.939Z,79.97
2019-04-28T22:23:44.335Z,80.06
2019-04-28T22:26:14.426Z,80.10
2019-04-28T22:28:42.861Z,80.21
2019-04-28T22:31:11.336Z,80.35
2019-04-28T22:33:39.823Z,80.40
2019-04-28T22:36:08.252Z,80.36
2019-04-28T22:38:36.848Z,80.40
2019-04-28T22:41:05.389Z,80.54
2019-04-28T22:43:33.826Z,80.87
2019-04-28T22:46:02.248Z,80.74
2019-04-28T22:48:30.685Z,80.87
2019-04-28T22:50:59.578Z,81.08
2019-04-28T22:53:29.701Z,81.17
2019-04-28T22:56:02.282Z,81.01
2019-04-28T22:58:32.346Z,81.03
2019-04-28T23:01:02.409Z,80.99
2019-04-28T23:03:35.613Z,80.86
2019-04-28T23:06:04.697Z,80.83
2019-04-28T23:08:33.135Z,80.84
2019-04-28T23:11:01.625Z,80.75
2019-04-28T23:13:30.051Z,80.82
2019-04-28T23:15:58.566Z,80.85
2019-04-28T23:18:27.657Z,80.88
2019-04-28T23:21:06.375Z,81.04
2019-04-28T23:23:34.842Z,81.04
2019-04-28T23:26:03.296Z,81.03
2019-04-28T23:28:31.716Z,81.10
2019-04-28T23:31:00.207Z,81.13
2019-04-28T23:33:28.621Z,81.44
2019-04-28T23:35:57.141Z,81.47
2019-04-28T23:38:25.610Z,81.74
2019-04-28T23:40:55.676Z,81.60
2019-04-28T23:43:24.112Z,81.66
2019-04-28T23:45:53.348Z,81.73
2019-04-28T23:48:21.776Z,81.64
2019-04-28T23:50:51.844Z,81.81
2019-04-28T23:53:22.275Z,81.96
2019-04-28T23:55:50.721Z,81.86
2019-04-28T23:58:19.164Z,81.83
